Time;durP1;ratioP1;P1;durP2;ratioP2;P2;SDS_P1;SDS_P2;PMS_P1;PMS_P2;Temp;Humidity;BMP_temperature;BMP_pressure;BME280_temperature;BME280_humidity;BME280_pressure;Samples;Min_cycle;Max_cycle;Signal;HPM_P1;HPM_P2
2021/10/27 00:02:26;;;;;;;38.30;21.30;;;;;;;6.97;52.26;99722.08;113521;1192;97562;-72
2021/10/27 00:04:54;;;;;;;39.50;21.60;;;;;;;7.01;52.39;99722.96;113877;1192;110215;-72
2021/10/27 00:07:23;;;;;;;42.10;22.50;;;;;;;7.05;52.32;99721.91;113925;1192;97548;-73
2021/10/27 00:09:54;;;;;;;38.70;21.50;;;;;;;7.11;52.51;99723.04;113872;1192;106205;-72
2021/10/27 00:12:22;;;;;;;40.40;22.20;;;;;;;7.17;52.41;99721.34;113844;1192;97536;-72
2021/10/27 00:14:50;;;;;;;39.30;21.10;;;;;;;7.22;52.46;99725.14;113911;1192;96049;-72
2021/10/27 00:17:18;;;;;;;41.30;21.60;;;;;;;7.28;52.68;99717.44;113860;1192;110973;-73
2021/10/27 00:19:50;;;;;;;40.20;22.10;;;;;;;7.33;52.67;99715.61;113597;1192;98330;-71
2021/10/27 00:22:18;;;;;;;39.90;21.00;;;;;;;7.39;52.80;99719.38;113480;1193;107422;-70
2021/10/27 00:24:50;;;;;;;41.90;20.80;;;;;;;7.44;52.83;99722.33;113873;1192;97548;-71
2021/10/27 00:27:18;;;;;;;48.30;22.30;;;;;;;7.49;53.09;99724.22;113609;1192;97551;-73
2021/10/27 00:29:46;;;;;;;41.20;22.10;;;;;;;7.53;53.10;99722.95;113878;1192;109968;-72
2021/10/27 00:32:14;;;;;;;41.30;22.80;;;;;;;7.57;53.06;99722.39;113897;1192;97532;-72
2021/10/27 00:34:42;;;;;;;41.90;21.80;;;;;;;7.61;53.08;99725.19;113846;1193;107567;-72
2021/10/27 00:37:09;;;;;;;41.70;22.60;;;;;;;7.64;52.90;99733.34;113419;1193;97734;-72
2021/10/27 00:39:37;;;;;;;41.20;21.40;;;;;;;7.67;53.15;99733.71;114594;1192;95503;-71
2021/10/27 00:42:11;;;;;;;41.60;22.00;;;;;;;7.70;53.24;99732.35;113872;1192;111754;-72
2021/10/27 00:44:44;;;;;;;44.40;23.00;;;;;;;7.72;53.44;99734.18;113868;1192;97626;-72
2021/10/27 00:47:17;;;;;;;42.90;21.60;;;;;;;7.74;53.25;99735.46;113840;1192;107503;-72
2021/10/27 00:49:50;;;;;;;41.30;23.10;;;;;;;7.77;53.32;99734.83;113413;1193;98231;-72
2021/10/27 00:52:22;;;;;;;44.00;22.80;;;;;;;7.78;53.30;99735.30;113831;1192;97548;-73
2021/10/27 00:54:54;;;;;;;43.60;24.40;;;;;;;7.79;53.43;99739.98;113866;1192;111187;-73
2021/10/27 00:57:27;;;;;;;40.70;23.10;;;;;;;7.82;53.58;99739.67;113868;1192;97549;-71
2021/10/27 00:59:59;;;;;;;39.80;21.90;;;;;;;7.84;53.47;99740.48;113550;1192;107489;-73
2021/10/27 01:02:27;;;;;;;38.20;22.00;;;;;;;7.86;53.45;99737.90;113861;1193;97601;-72
2021/10/27 01:04:59;;;;;;;47.60;24.20;;;;;;;7.86;53.49;99731.89;113871;1193;95154;-72
2021/10/27 01:07:27;;;;;;;41.80;23.00;;;;;;;7.88;53.55;99729.48;113924;1192;110947;-72
2021/10/27 01:09:55;;;;;;;42.60;23.10;;;;;;;7.89;53.66;99731.33;113930;1192;97593;-72
2021/10/27 01:12:23;;;;;;;40.10;22.80;;;;;;;7.91;53.56;99733.58;113745;1192;106643;-71
2021/10/27 01:14:51;;;;;;;44.10;24.50;;;;;;;7.94;53.88;99738.76;113809;1192;95954;-71
2021/10/27 01:17:23;;;;;;;42.60;23.30;;;;;;;7.96;53.73;99738.61;113614;1192;98012;-72
2021/10/27 01:19:59;;;;;;;40.50;22.10;;;;;;;7.98;53.74;99738.17;113646;1192;112226;-73
2021/10/27 01:22:37;;;;;;;37.90;21.40;;;;;;;7.99;53.76;99741.65;113852;1192;97550;-71
2021/10/27 01:25:11;;;;;;;38.20;21.70;;;;;;;7.99;53.83;99746.58;113463;1193;106328;-72
2021/10/27 01:27:46;;;;;;;40.70;21.20;;;;;;;7.99;53.82;99744.50;113873;1192;97980;-71
2021/10/27 01:30:21;;;;;;;42.00;22.90;;;;;;;7.98;53.86;99744.14;113450;1192;97557;-72
2021/10/27 01:32:54;;;;;;;44.70;23.80;;;;;;;7.98;53.90;99739.39;113848;1193;111201;-72
2021/10/27 01:35:22;;;;;;;41.30;21.50;;;;;;;7.99;54.22;99732.65;113886;1193;97575;-71
2021/10/27 01:37:55;;;;;;;42.10;23.10;;;;;;;7.98;54.17;99731.80;113834;1192;106741;-74
2021/10/27 01:40:24;;;;;;;39.30;23.20;;;;;;;7.99;54.24;99735.98;113875;1191;97725;-74
2021/10/27 01:42:56;;;;;;;40.10;22.70;;;;;;;8.00;54.39;99739.80;113627;1192;97580;-73
2021/10/27 01:45:33;;;;;;;42.50;22.70;;;;;;;8.02;54.16;99736.71;113836;1193;110151;-71
2021/10/27 01:48:01;;;;;;;46.90;23.90;;;;;;;8.03;54.26;99741.25;113873;1192;97543;-73
2021/10/27 01:50:29;;;;;;;40.00;23.40;;;;;;;8.04;54.44;99740.51;113586;1192;108502;-74
2021/10/27 01:52:57;;;;;;;43.10;23.50;;;;;;;8.03;54.32;99743.02;113894;1192;97718;-72
2021/10/27 01:55:25;;;;;;;41.00;23.80;;;;;;;8.03;54.53;99740.57;113884;1192;97625;-71
2021/10/27 01:57:56;;;;;;;43.40;23.40;;;;;;;8.04;54.52;99745.98;113832;1193;111072;-72
2021/10/27 02:00:24;;;;;;;47.00;24.20;;;;;;;8.04;54.50;99747.55;113861;1192;97565;-72
2021/10/27 02:02:56;;;;;;;50.10;24.20;;;;;;;8.04;54.67;99754.63;113821;1192;107018;-72
2021/10/27 02:05:28;;;;;;;43.80;24.10;;;;;;;8.06;54.58;99758.07;113871;1193;97622;-72
2021/10/27 02:07:56;;;;;;;44.10;23.40;;;;;;;8.07;54.67;99756.63;113876;1193;96493;-73
2021/10/27 02:10:24;;;;;;;41.60;23.30;;;;;;;8.07;54.73;99757.31;113863;1192;110799;-73
2021/10/27 02:12:56;;;;;;;45.70;24.20;;;;;;;8.07;54.75;99760.16;113793;1192;97506;-73
2021/10/27 02:15:24;;;;;;;41.30;23.90;;;;;;;8.07;54.95;99762.64;113858;1192;107578;-72
2021/10/27 02:17:52;;;;;;;44.20;24.50;;;;;;;8.08;54.78;99758.70;113788;1193;96474;-71
2021/10/27 02:20:19;;;;;;;39.90;23.80;;;;;;;8.09;54.86;99761.48;113856;1192;95039;-71
2021/10/27 02:22:48;;;;;;;41.40;25.20;;;;;;;8.09;55.02;99760.73;113666;1192;111132;-71
2021/10/27 02:25:15;;;;;;;46.00;26.00;;;;;;;8.10;55.13;99764.79;113847;1192;97636;-71
2021/10/27 02:27:43;;;;;;;43.90;24.60;;;;;;;8.09;55.04;99767.46;113824;1193;108347;-71
2021/10/27 02:30:11;;;;;;;46.10;25.30;;;;;;;8.10;55.16;99771.10;113905;1192;97569;-72
2021/10/27 02:32:39;;;;;;;47.30;26.00;;;;;;;8.12;55.10;99768.36;113797;1186;97578;-72
2021/10/27 02:35:16;;;;;;;46.30;24.80;;;;;;;8.12;55.30;99768.02;113605;1192;112728;-73
2021/10/27 02:37:43;;;;;;;43.30;24.70;;;;;;;8.15;55.20;99772.41;113844;1193;96699;-74
2021/10/27 02:40:12;;;;;;;44.30;25.60;;;;;;;8.16;55.09;99778.24;113557;1193;107605;-73
2021/10/27 02:42:44;;;;;;;47.20;25.20;;;;;;;8.15;55.21;99779.15;113859;1193;97672;-74
2021/10/27 02:45:20;;;;;;;42.20;25.10;;;;;;;8.16;55.30;99782.99;113621;1192;97570;-72
2021/10/27 02:47:48;;;;;;;45.70;26.00;;;;;;;8.17;55.16;99783.67;113864;1192;111200;-72
2021/10/27 02:50:16;;;;;;;43.70;24.30;;;;;;;8.17;55.26;99785.60;113805;1193;97716;-72
2021/10/27 02:52:49;;;;;;;40.00;23.90;;;;;;;8.18;55.33;99780.26;113728;1192;107608;-71
2021/10/27 02:55:20;;;;;;;44.20;25.20;;;;;;;8.17;55.34;99780.11;113930;1192;97553;-72
2021/10/27 02:57:48;;;;;;;45.30;25.90;;;;;;;8.16;55.43;99782.64;113960;1192;97599;-70
2021/10/27 03:00:19;;;;;;;49.80;28.10;;;;;;;8.14;55.35;99785.40;113930;1193;111127;-73
2021/10/27 03:02:47;;;;;;;45.80;26.40;;;;;;;8.12;55.25;99787.10;113847;1192;95762;-73
2021/10/27 03:05:15;;;;;;;42.40;24.60;;;;;;;8.11;55.32;99791.77;114898;1192;107529;-72
2021/10/27 03:07:42;;;;;;;44.60;26.20;;;;;;;8.09;55.31;99796.95;114010;1192;97553;-73
2021/10/27 03:10:10;;;;;;;45.00;26.90;;;;;;;8.09;55.39;99802.45;113988;1193;97600;-73
2021/10/27 03:12:38;;;;;;;42.90;26.00;;;;;;;8.09;55.49;99806.52;113963;1192;110864;-72
2021/10/27 03:15:06;;;;;;;44.50;25.50;;;;;;;8.08;55.60;99810.29;113955;1193;97663;-70
2021/10/27 03:17:38;;;;;;;45.80;25.20;;;;;;;8.07;55.54;99808.21;113889;1192;107524;-71
2021/10/27 03:20:08;;;;;;;44.00;25.00;;;;;;;8.06;55.47;99815.13;113912;1192;97525;-72
2021/10/27 03:22:36;;;;;;;47.50;25.20;;;;;;;8.05;55.40;99819.58;113956;1192;95160;-72
2021/10/27 03:25:08;;;;;;;48.10;27.30;;;;;;;8.04;55.56;99820.52;113899;1193;111170;-72
2021/10/27 03:27:36;;;;;;;45.00;26.50;;;;;;;8.03;55.50;99817.02;113681;1192;97548;-73
2021/10/27 03:30:09;;;;;;;45.60;27.00;;;;;;;8.02;55.65;99814.79;113760;1192;107487;-72
2021/10/27 03:32:36;;;;;;;44.40;25.80;;;;;;;8.02;55.69;99814.46;113785;1192;97686;-73
2021/10/27 03:35:08;;;;;;;45.30;25.80;;;;;;;8.02;55.73;99818.33;113898;1193;97609;-72
2021/10/27 03:37:35;;;;;;;43.90;25.30;;;;;;;8.04;55.75;99815.02;113852;1192;111153;-73
2021/10/27 03:40:10;;;;;;;45.60;26.50;;;;;;;8.06;55.73;99815.66;113839;1193;97604;-73
2021/10/27 03:42:38;;;;;;;48.00;26.70;;;;;;;8.08;55.84;99819.11;113807;1192;107186;-73
2021/10/27 03:45:05;;;;;;;43.10;27.20;;;;;;;8.10;55.92;99820.41;113803;1193;96875;-72
2021/10/27 03:47:37;;;;;;;48.00;26.60;;;;;;;8.12;56.04;99827.36;113819;1192;95115;-72
2021/10/27 03:50:14;;;;;;;48.10;26.50;;;;;;;8.15;55.95;99829.88;113905;1191;111111;-72
2021/10/27 03:52:46;;;;;;;;;;;;;;;8.16;56.07;99829.23;113942;1193;97637;-72
2021/10/27 03:55:14;;;;;;;45.30;26.70;;;;;;;8.15;56.17;99829.35;113751;1193;107496;-74
2021/10/27 03:57:46;;;;;;;44.50;26.80;;;;;;;8.16;55.94;99830.52;113779;1192;97647;-72
2021/10/27 04:00:17;;;;;;;43.00;26.00;;;;;;;8.17;56.16;99832.77;113867;1193;97647;-74
2021/10/27 04:02:45;;;;;;;41.90;26.20;;;;;;;8.19;56.14;99828.08;113830;1193;111107;-71
2021/10/27 04:05:13;;;;;;;46.90;26.40;;;;;;;8.19;56.13;99829.13;113673;1192;95035;-71
2021/10/27 04:07:41;;;;;;;46.90;27.40;;;;;;;8.19;56.29;99824.85;113662;1192;107513;-71
2021/10/27 04:10:14;;;;;;;48.30;25.20;;;;;;;8.20;56.45;99823.61;113738;1193;97629;-70
2021/10/27 04:12:42;;;;;;;;;;;;;;;8.19;56.42;99824.89;113821;1192;97505;-69
2021/10/27 04:15:15;;;;;;;49.50;25.80;;;;;;;8.18;56.44;99827.04;113623;1192;110018;-69
2021/10/27 04:17:42;;;;;;;40.90;21.50;;;;;;;8.21;56.40;99831.52;113796;1193;97736;-70
2021/10/27 04:20:15;;;;;;;46.10;26.10;;;;;;;8.22;56.35;99826.52;113723;1193;106164;-71
2021/10/27 04:22:43;;;;;;;42.80;25.60;;;;;;;8.21;56.46;99825.31;113725;1193;96464;-71
2021/10/27 04:25:15;;;;;;;46.80;28.70;;;;;;;8.22;56.52;99826.36;113969;1193;97547;-70
2021/10/27 04:27:43;;;;;;;50.30;29.90;;;;;;;8.22;56.49;99839.80;113621;1192;111093;-72
2021/10/27 04:30:14;;;;;;;45.20;27.60;;;;;;;8.23;56.76;99839.04;113657;1192;95449;-71
2021/10/27 04:32:42;;;;;;;45.60;27.80;;;;;;;8.24;56.77;99843.39;113754;1193;105934;-69
2021/10/27 04:35:15;;;;;;;48.60;29.10;;;;;;;8.23;56.83;99845.91;113434;1193;97630;-71
2021/10/27 04:37:47;;;;;;;46.50;27.80;;;;;;;8.19;56.77;99846.27;113553;1192;97558;-70
2021/10/27 04:40:20;;;;;;;50.20;28.90;;;;;;;8.17;56.79;99849.02;113635;1193;111826;-70
2021/10/27 04:42:48;;;;;;;;;;;;;;;8.13;56.76;99852.08;113637;1192;97588;-71
2021/10/27 04:45:22;;;;;;;48.80;29.50;;;;;;;8.09;56.74;99851.40;113760;1193;106642;-70
2021/10/27 04:47:54;;;;;;;49.40;28.50;;;;;;;8.04;56.67;99858.48;113481;1192;97618;-70
2021/10/27 04:50:21;;;;;;;51.80;30.00;;;;;;;7.97;56.74;99864.16;113480;1193;97586;-71
2021/10/27 04:52:49;;;;;;;51.10;31.20;;;;;;;7.94;56.78;99868.54;113557;1192;110152;-71
2021/10/27 04:55:17;;;;;;;48.80;28.00;;;;;;;7.93;56.66;99865.77;113629;1192;97656;-70
2021/10/27 04:57:45;;;;;;;52.70;30.00;;;;;;;7.84;56.65;99868.30;113488;1192;107592;-70
2021/10/27 05:00:18;;;;;;;53.20;30.50;;;;;;;7.75;56.64;99872.61;113341;1193;97652;-70
2021/10/27 05:02:46;;;;;;;52.80;30.30;;;;;;;7.70;56.79;99866.70;113600;1192;97628;-71
2021/10/27 05:05:18;;;;;;;52.30;31.30;;;;;;;7.65;57.06;99867.81;113705;1192;111187;-70
2021/10/27 05:07:52;;;;;;;50.50;30.00;;;;;;;7.63;56.80;99869.63;113665;1192;96365;-70
2021/10/27 05:10:24;;;;;;;48.60;27.90;;;;;;;7.62;57.05;99869.52;113669;1192;106594;-70
2021/10/27 05:12:52;;;;;;;53.20;30.20;;;;;;;7.55;57.17;99872.13;113719;1192;97534;-69
2021/10/27 05:15:24;;;;;;;50.70;29.50;;;;;;;7.46;57.21;99866.58;113730;1193;98299;-69
2021/10/27 05:17:52;;;;;;;48.60;28.50;;;;;;;7.38;57.25;99874.71;113605;1192;111367;-67
2021/10/27 05:20:20;;;;;;;51.20;29.60;;;;;;;7.34;57.33;99885.30;113586;1192;97599;-69
2021/10/27 05:22:48;;;;;;;49.60;29.20;;;;;;;7.31;57.20;99881.05;113607;1192;108071;-69
2021/10/27 05:25:16;;;;;;;50.80;28.70;;;;;;;7.27;57.37;99878.58;113625;1193;97720;-70
2021/10/27 05:27:44;;;;;;;50.50;28.70;;;;;;;7.24;57.36;99891.39;113660;1193;95128;-69
2021/10/27 05:30:12;;;;;;;50.00;28.90;;;;;;;7.24;57.37;99891.23;113751;1193;111200;-71
2021/10/27 05:32:40;;;;;;;53.10;30.80;;;;;;;7.22;57.42;99893.61;113698;1177;97673;-74
2021/10/27 05:35:12;;;;;;;55.00;32.00;;;;;;;7.20;57.43;99897.58;113757;1193;109722;-72
2021/10/27 05:37:40;;;;;;;51.50;28.80;;;;;;;7.22;57.70;99898.73;113738;1192;97545;-72
2021/10/27 05:40:08;;;;;;;54.10;31.90;;;;;;;7.26;57.88;99902.44;113685;1192;94988;-72
2021/10/27 05:42:39;;;;;;;58.30;31.90;;;;;;;7.30;57.96;99910.52;113684;1192;111143;-72
2021/10/27 05:45:11;;;;;;;50.60;28.20;;;;;;;7.32;58.05;99914.16;113528;1192;98242;-72
2021/10/27 05:47:44;;;;;;;50.20;28.20;;;;;;;7.35;58.08;99919.30;113689;1193;109791;-72
2021/10/27 05:55:36;;;;;;;50.90;29.20;;;;;;;7.50;58.29;99932.05;113765;1192;111274;-71
2021/10/27 05:58:09;;;;;;;47.90;28.10;;;;;;;7.54;57.95;99933.80;113683;1192;95170;-70
2021/10/27 06:00:46;;;;;;;51.80;28.10;;;;;;;7.54;57.86;99935.91;113663;1192;107556;-72
2021/10/27 06:03:14;;;;;;;46.30;28.00;;;;;;;7.53;57.77;99933.69;113439;1193;97651;-71
2021/10/27 06:05:42;;;;;;;47.60;25.90;;;;;;;7.49;58.07;99930.17;113642;1192;97570;-70
2021/10/27 06:08:10;;;;;;;45.10;25.30;;;;;;;7.51;58.14;99928.30;113662;1192;111142;-72
2021/10/27 06:10:42;;;;;;;45.50;26.00;;;;;;;7.56;58.19;99927.70;113428;1193;95750;-71
2021/10/27 06:13:15;;;;;;;48.00;25.30;;;;;;;7.63;58.02;99927.55;113482;1178;107522;-70
2021/10/27 06:15:47;;;;;;;43.50;23.60;;;;;;;7.70;58.05;99930.61;113634;1192;98073;-71
2021/10/27 06:18:15;;;;;;;44.30;23.70;;;;;;;7.77;58.06;99929.77;113639;1192;95017;-71
2021/10/27 06:20:43;;;;;;;47.20;24.40;;;;;;;7.82;58.06;99932.33;113571;1192;111903;-70
2021/10/27 06:23:16;;;;;;;44.30;23.50;;;;;;;7.89;58.20;99939.75;113618;1193;97571;-71
2021/10/27 06:25:50;;;;;;;46.40;24.00;;;;;;;7.95;58.32;99942.83;113636;1192;106824;-69
2021/10/27 06:28:23;;;;;;;42.00;23.60;;;;;;;8.00;58.41;99945.73;113608;1192;95016;-70
2021/10/27 06:31:01;;;;;;;40.00;22.40;;;;;;;8.06;58.48;99944.80;113491;1192;95125;-71
2021/10/27 06:36:26;;;;;;;40.00;23.00;;;;;;;8.17;58.54;99946.54;113599;1192;95777;-70
2021/10/27 06:47:10;;;;;;;38.70;21.10;;;;;;;8.42;58.60;99950.64;112950;1193;110086;-71
2021/10/27 06:49:46;;;;;;;48.90;23.50;;;;;;;8.47;58.62;99949.33;113705;1192;98262;-70
2021/10/27 06:52:14;;;;;;;40.20;24.10;;;;;;;8.52;58.65;99950.72;113654;1192;107497;-70
2021/10/27 06:54:41;;;;;;;44.00;25.20;;;;;;;8.56;58.63;99953.18;113594;1192;97663;-71
2021/10/27 06:57:09;;;;;;;42.40;23.70;;;;;;;8.56;58.45;99952.62;113573;1192;95437;-70
2021/10/27 06:59:40;;;;;;;41.50;22.40;;;;;;;8.56;58.54;99951.71;113573;1192;111107;-71
2021/10/27 07:05:00;;;;;;;42.10;22.00;;;;;;;8.61;58.70;99958.21;113563;1192;107551;-73
2021/10/27 07:15:55;;;;;;;34.80;21.00;;;;;;;9.02;58.82;99965.51;113170;1195;96257;-69
2021/10/27 07:18:29;;;;;;;39.10;20.40;;;;;;;9.10;58.87;99964.05;113459;1192;107548;-72
2021/10/27 07:20:58;;;;;;;40.70;21.80;;;;;;;9.19;58.88;99964.46;113596;1192;97580;-71
2021/10/27 07:23:27;;;;;;;36.40;20.30;;;;;;;9.26;58.95;99966.94;113652;1192;98428;-70
2021/10/27 07:25:59;;;;;;;37.80;20.30;;;;;;;9.36;59.00;99967.78;113537;1193;111194;-70
2021/10/27 07:28:31;;;;;;;37.80;19.70;;;;;;;9.46;58.93;99964.10;113483;1192;97742;-71
2021/10/27 07:31:04;;;;;;;33.60;19.30;;;;;;;9.55;59.03;99960.45;113451;1192;107541;-72
2021/10/27 07:33:33;;;;;;;33.30;18.90;;;;;;;9.61;59.07;99959.93;113370;1186;95017;-71
2021/10/27 07:36:12;;;;;;;32.50;18.40;;;;;;;9.69;59.10;99963.94;113415;1193;95826;-71
2021/10/27 07:41:29;;;;;;;38.00;19.70;;;;;;;9.84;59.15;99960.27;113539;1192;95950;-70
2021/10/27 07:44:05;;;;;;;36.30;20.00;;;;;;;9.89;59.12;99960.21;113426;1194;106342;-70
2021/10/27 07:46:34;;;;;;;35.30;20.20;;;;;;;9.94;59.21;99962.08;113457;1192;97613;-70
2021/10/27 07:49:03;;;;;;;35.50;19.10;;;;;;;9.97;59.19;99957.59;113504;1193;98755;-70
2021/10/27 07:51:31;;;;;;;39.50;20.80;;;;;;;10.03;59.27;99959.06;113553;1193;111133;-71
2021/10/27 07:53:58;;;;;;;37.50;19.30;;;;;;;10.08;59.21;99960.90;113535;1192;95726;-70
2021/10/27 07:56:29;;;;;;;34.10;18.80;;;;;;;10.14;59.27;99957.59;113421;1192;107383;-69
2021/10/27 07:59:03;;;;;;;33.60;19.30;;;;;;;10.20;59.24;99957.59;113342;1193;97547;-68
2021/10/27 08:01:31;;;;;;;38.40;20.90;;;;;;;10.26;59.27;99964.15;113472;1192;95075;-72
2021/10/27 08:03:59;;;;;;;36.50;19.30;;;;;;;10.31;59.27;99959.42;113222;1192;111091;-70
2021/10/27 08:06:31;;;;;;;41.30;21.10;;;;;;;10.37;59.29;99961.91;113517;1192;97532;-69
2021/10/27 08:08:59;;;;;;;53.50;21.90;;;;;;;10.43;59.29;99959.85;113557;1192;107446;-69
2021/10/27 08:11:27;;;;;;;39.80;20.60;;;;;;;10.50;59.34;99961.41;113485;1192;97609;-70
2021/10/27 08:13:56;;;;;;;36.90;19.30;;;;;;;10.57;59.29;99962.08;113564;1192;95129;-69
2021/10/27 08:16:26;;;;;;;36.50;19.60;;;;;;;10.65;59.29;99961.59;113566;1192;111726;-70
2021/10/27 08:18:54;;;;;;;32.90;18.00;;;;;;;10.72;59.32;99959.05;113565;1192;97546;-69
2021/10/27 08:21:25;;;;;;;35.80;19.20;;;;;;;10.81;59.44;99959.42;113508;1192;106146;-71
2021/10/27 08:23:56;;;;;;;36.30;18.90;;;;;;;10.90;59.48;99957.46;113534;1192;97625;-72
2021/10/27 08:26:26;;;;;;;30.80;17.70;;;;;;;11.00;59.57;99960.23;113531;1193;97637;-75
2021/10/27 08:29:12;;;;;;;34.80;18.20;;;;;;;11.10;59.57;99961.59;113464;1192;111256;-72
2021/10/27 08:31:41;;;;;;;34.30;17.70;;;;;;;11.27;59.64;99962.36;113536;1192;97669;-70
2021/10/27 08:34:21;;;;;;;28.00;15.80;;;;;;;11.49;59.61;99958.33;113508;1192;107455;-71
2021/10/27 08:36:49;;;;;;;29.80;16.40;;;;;;;11.77;59.56;99961.90;113404;1192;98359;-70
2021/10/27 08:39:17;;;;;;;33.50;16.70;;;;;;;12.08;59.78;99956.05;113512;1192;95121;-70
2021/10/27 08:41:49;;;;;;;33.20;16.20;;;;;;;12.43;59.69;99959.35;113280;1193;111067;-70
2021/10/27 08:44:17;;;;;;;27.90;15.50;;;;;;;12.77;59.59;99957.80;113551;1192;97556;-71
2021/10/27 08:46:49;;;;;;;30.40;16.40;;;;;;;13.10;59.57;99964.05;113445;1192;107584;-70
2021/10/27 08:49:18;;;;;;;27.20;13.40;;;;;;;13.45;59.61;99955.27;113549;1193;95333;-70
2021/10/27 08:51:53;;;;;;;28.20;14.90;;;;;;;13.82;59.58;99953.91;113522;1192;97561;-70
2021/10/27 08:54:22;;;;;;;29.40;15.80;;;;;;;14.25;59.32;99950.78;113486;1192;111186;-71
2021/10/27 08:56:57;;;;;;;30.30;16.20;;;;;;;14.60;59.15;99948.23;113553;1192;97674;-71
2021/10/27 09:36:35;;;;;;;23.50;12.10;;;;;;;18.04;56.83;99948.96;113661;1192;111150;-71
2021/10/27 09:46:03;;;;;;;21.30;10.60;;;;;;;17.91;56.14;99951.42;113507;1193;97647;-72
2021/10/27 09:56:28;;;;;;;21.80;11.10;;;;;;;17.64;55.41;99945.61;113669;1192;107441;-72
2021/10/27 10:04:51;;;;;;;21.00;10.10;;;;;;;17.46;55.00;99939.04;113542;1192;112176;-71
2021/10/27 10:07:20;;;;;;;19.50;9.80;;;;;;;17.35;54.52;99939.02;113502;1192;95696;-72
2021/10/27 10:09:53;;;;;;;22.80;10.10;;;;;;;17.29;54.74;99941.00;113766;1192;107489;-72
2021/10/27 10:12:21;;;;;;;21.60;9.90;;;;;;;17.30;54.54;99933.19;113488;1193;98317;-71
2021/10/27 10:14:51;;;;;;;19.40;9.60;;;;;;;17.32;54.42;99929.70;113650;1192;97547;-71
2021/10/27 10:17:19;;;;;;;24.80;11.00;;;;;;;17.37;53.88;99929.71;113703;1193;111250;-72
2021/10/27 10:19:52;;;;;;;20.10;9.60;;;;;;;17.38;53.69;99928.17;113672;1192;97738;-71
2021/10/27 10:22:33;;;;;;;21.10;9.90;;;;;;;17.38;53.72;99927.34;113762;1194;106443;-70
2021/10/27 10:25:20;;;;;;;21.10;9.90;;;;;;;17.37;53.10;99923.77;113781;1193;95035;-71
2021/10/27 10:27:55;;;;;;;19.00;9.20;;;;;;;17.38;53.42;99921.73;113608;1193;97647;-70
2021/10/27 10:30:41;;;;;;;19.60;9.10;;;;;;;17.43;53.13;99920.25;113775;1192;110997;-72
2021/10/27 10:33:14;;;;;;;20.90;8.80;;;;;;;17.34;52.66;99923.67;113591;1192;97579;-71
2021/10/27 11:22:44;;;;;;;18.40;8.30;;;;;;;17.41;51.24;99895.16;113524;1195;97612;-70
2021/10/27 11:26:09;;;;;;;16.50;7.90;;;;;;;17.46;51.25;99891.84;113773;1193;97540;-70
2021/10/27 11:47:41;;;;;;;17.60;7.40;;;;;;;17.57;50.09;99880.98;113751;1192;107635;-70
2021/10/27 11:50:13;;;;;;;20.80;8.00;;;;;;;17.53;50.24;99879.70;113732;1193;97566;-70
2021/10/27 11:52:42;;;;;;;18.30;8.70;;;;;;;17.54;49.87;99877.34;113722;1192;98254;-70
2021/10/27 11:55:13;;;;;;;17.40;7.60;;;;;;;17.52;49.77;99870.63;113796;1192;110223;-69
2021/10/27 11:57:44;;;;;;;17.40;7.60;;;;;;;17.53;49.71;99865.92;113548;1193;97639;-69
2021/10/27 12:00:29;;;;;;;19.10;7.20;;;;;;;17.52;49.37;99862.27;113621;1193;107475;-69
2021/10/27 12:03:05;;;;;;;19.90;7.90;;;;;;;17.49;49.38;99861.63;113520;1193;95821;-71
2021/10/27 12:13:59;;;;;;;17.10;7.00;;;;;;;17.34;49.00;99852.54;113407;1193;108027;-72
2021/10/27 12:16:38;;;;;;;16.30;6.80;;;;;;;17.34;48.86;99860.30;113494;1193;97488;-70
2021/10/27 12:19:15;;;;;;;19.30;7.20;;;;;;;17.33;48.91;99857.83;113444;1194;97641;-73
2021/10/27 12:21:49;;;;;;;18.40;7.30;;;;;;;17.33;48.69;99863.23;113403;1193;111194;-72
2021/10/27 12:24:21;;;;;;;16.30;7.00;;;;;;;17.33;48.75;99862.01;113570;1193;97693;-69
2021/10/27 12:27:01;;;;;;;18.10;7.20;;;;;;;17.33;48.67;99862.09;113489;1193;107601;-70
2021/10/27 12:29:31;;;;;;;17.80;6.90;;;;;;;17.33;48.63;99859.98;113479;1193;95580;-70
2021/10/27 12:32:14;;;;;;;17.10;7.20;;;;;;;17.32;48.54;99857.77;113423;1193;97553;-71
2021/10/27 12:34:45;;;;;;;18.60;6.70;;;;;;;17.32;48.34;99859.16;113486;1193;111406;-68
2021/10/27 12:37:32;;;;;;;14.00;6.40;;;;;;;17.31;48.31;99859.84;113353;1193;98234;-68
2021/10/27 12:43:06;;;;;;;20.00;8.20;;;;;;;17.29;48.39;99853.88;113437;1193;95023;-72
2021/10/27 12:45:49;;;;;;;18.90;7.90;;;;;;;17.29;48.20;99855.00;113363;1193;96404;-65
2021/10/27 12:48:35;;;;;;;18.20;7.60;;;;;;;17.26;48.47;99856.48;113525;1193;112089;-70
2021/10/27 12:51:09;;;;;;;20.00;8.10;;;;;;;17.21;48.16;99857.42;113556;1193;97647;-72
2021/10/27 12:53:45;;;;;;;16.80;7.00;;;;;;;17.16;48.23;99856.49;113504;1193;107736;-73
2021/10/27 12:56:17;;;;;;;17.60;7.50;;;;;;;17.09;48.24;99850.41;113408;1193;97661;-74
2021/10/27 12:58:53;;;;;;;18.80;7.90;;;;;;;17.09;48.20;99850.10;113419;1193;97691;-73
2021/10/27 13:01:31;;;;;;;19.10;7.20;;;;;;;17.06;47.92;99850.16;113333;1193;111159;-72
2021/10/27 13:06:55;;;;;;;19.00;7.70;;;;;;;17.01;48.15;99850.62;113745;1193;107616;-72
2021/10/27 13:32:59;;;;;;;19.10;7.20;;;;;;;16.28;47.75;99852.13;113662;1193;106862;-69
2021/10/27 13:35:28;;;;;;;18.40;7.20;;;;;;;16.20;47.66;99853.61;113325;1193;97648;-70
2021/10/27 13:37:56;;;;;;;20.20;7.70;;;;;;;16.16;47.71;99852.87;113360;1192;95068;-70
2021/10/27 13:40:26;;;;;;;17.60;7.30;;;;;;;16.16;47.64;99851.43;113574;1193;110993;-70
2021/10/27 13:43:06;;;;;;;18.30;7.20;;;;;;;16.17;47.74;99850.88;113749;1192;97572;-71
2021/10/27 13:48:37;;;;;;;21.30;7.90;;;;;;;16.16;47.74;99851.44;113650;1193;95042;-72
2021/10/27 14:08:02;;;;;;;18.60;7.70;;;;;;;16.07;47.87;99847.91;113411;1193;111253;-73
2021/10/27 14:13:43;;;;;;;25.40;7.20;;;;;;;16.04;47.81;99848.55;113399;1193;107519;-70
2021/10/27 14:19:19;;;;;;;17.50;6.40;;;;;;;15.93;47.87;99854.27;113258;1193;98230;-70
2021/10/27 15:20:52;;;;;;;33.10;13.30;;;;;;;14.22;48.90;99862.03;113745;1193;98054;-69
2021/10/27 15:29:06;;;;;;;33.00;13.10;;;;;;;13.92;49.08;99865.83;113391;1193;95045;-69
2021/10/27 15:44:52;;;;;;;37.00;15.60;;;;;;;13.42;49.30;99869.63;113522;1192;111176;-71
2021/10/27 15:52:54;;;;;;;38.90;17.60;;;;;;;13.16;49.48;99864.14;113525;1192;97581;-70
2021/10/27 15:55:23;;;;;;;35.50;16.60;;;;;;;13.08;49.48;99859.52;113624;1193;97686;-68
2021/10/27 15:57:51;;;;;;;36.10;18.20;;;;;;;13.02;49.45;99861.38;113545;1193;110212;-70
2021/10/27 16:00:22;;;;;;;37.40;18.30;;;;;;;12.95;49.55;99862.92;113702;1192;97580;-70
2021/10/27 16:02:49;;;;;;;44.30;20.50;;;;;;;12.89;49.69;99862.10;113781;1194;107621;-71
2021/10/27 16:05:18;;;;;;;46.30;21.80;;;;;;;12.85;49.65;99863.11;113335;1193;96189;-70
2021/10/27 16:07:48;;;;;;;41.00;21.40;;;;;;;12.80;49.79;99866.80;113576;1193;97676;-70
2021/10/27 16:10:18;;;;;;;45.30;22.40;;;;;;;12.75;49.85;99866.77;113298;1193;110679;-70
2021/10/27 16:12:51;;;;;;;48.30;23.00;;;;;;;12.69;49.83;99867.54;113558;1193;96252;-69
2021/10/27 16:15:36;;;;;;;49.30;25.50;;;;;;;12.64;49.90;99872.52;113489;1193;107481;-68
2021/10/27 16:18:08;;;;;;;50.20;26.00;;;;;;;12.59;49.99;99875.20;113525;1193;95123;-69
2021/10/27 16:20:36;;;;;;;65.90;35.20;;;;;;;12.54;50.03;99872.52;113672;1193;97650;-70
2021/10/27 16:23:05;;;;;;;57.60;27.60;;;;;;;12.46;50.06;99871.39;113656;1192;111669;-69
2021/10/27 16:25:33;;;;;;;51.80;27.90;;;;;;;12.39;50.02;99870.83;113801;1192;97641;-68
2021/10/27 16:28:01;;;;;;;59.20;29.30;;;;;;;12.33;50.21;99874.06;113682;1193;108133;-68
2021/10/27 16:30:30;;;;;;;58.40;29.90;;;;;;;12.28;50.32;99868.36;113695;1192;97671;-68
2021/10/27 16:32:59;;;;;;;55.10;26.90;;;;;;;12.24;50.18;99869.32;115385;1192;95856;-69
2021/10/27 16:35:27;;;;;;;59.10;28.80;;;;;;;12.19;50.20;99873.77;113964;1192;111161;-69